Nashville, Tennessee
Traffic Map
Current Weather Conditions
Nashville, Tennessee
Broken Clouds
Broken Clouds
80°
Feels Like: 84°
Wind Chill: 80° Ceiling: 5000
Heat Index: 84° Visibility: 10mi
Dew Point: 71° Wind: 17mph
Humidity: 74% Direction: 200° (SSW)
Pressure: 29.85in Gusts: 22mph
Raw Report DataKBNA 231253Z 20015G19KT 10SM SCT025 BKN050 27/22 A2985 RMK AO2 RAB44E48 SLP099 P0000 T02670217 $
Traffic Incident Summary
Active as of:
Severity:
Category:
InformationThere was an issue retrieving the traffic information for this location. Please try a different location or try again shortly.
Advertisements
Track Severe Weather on mobile